createdAt,value
2023-05-10T00:01:58.913Z,421.29
2023-05-10T00:06:44.944Z,420.90
2023-05-10T00:11:59.846Z,420.96
2023-05-10T00:17:13.058Z,420.40
2023-05-10T00:22:32.091Z,420.48
2023-05-10T00:27:50.792Z,420.52
2023-05-10T00:33:09.149Z,420.46
2023-05-10T00:44:39.156Z,417.49
2023-05-10T00:54:45.330Z,415.84
2023-05-10T01:00:28.041Z,415.10
2023-05-10T01:04:27.447Z,415.92
2023-05-10T01:05:26.142Z,414.17
2023-05-10T01:11:39.266Z,414.34
2023-05-10T01:16:32.766Z,414.97
2023-05-10T01:22:18.497Z,413.77
2023-05-10T01:28:11.787Z,413.81
2023-05-10T01:33:55.622Z,413.67
2023-05-10T01:39:34.453Z,413.76
2023-05-10T01:46:15.117Z,412.61
2023-05-10T01:55:51.212Z,412.70
2023-05-10T02:00:45.404Z,412.33
2023-05-10T02:06:18.716Z,411.98
2023-05-10T02:11:49.388Z,412.26
2023-05-10T02:17:08.324Z,412.67
2023-05-10T02:22:07.474Z,413.32
2023-05-10T02:27:47.157Z,412.89
2023-05-10T02:33:21.688Z,412.92
2023-05-10T02:38:28.278Z,412.58
2023-05-10T02:43:41.679Z,412.75
2023-05-10T02:50:49.552Z,413.09
2023-05-10T02:54:52.543Z,413.20
2023-05-10T03:04:57.947Z,413.23
2023-05-10T03:06:20.792Z,413.12
2023-05-10T03:10:58.918Z,413.29
2023-05-10T03:16:47.647Z,413.72
2023-05-10T03:22:15.894Z,413.03
2023-05-10T03:28:26.370Z,412.88
2023-05-10T03:33:26.577Z,412.74
2023-05-10T03:39:33.206Z,412.09
2023-05-10T03:45:24.857Z,412.21
2023-05-10T04:03:34.892Z,411.17
2023-05-10T04:07:28.628Z,410.80
2023-05-10T04:12:49.838Z,410.80
2023-05-10T04:18:32.166Z,410.56
2023-05-10T04:23:54.625Z,410.95
2023-05-10T04:29:05.083Z,410.72
2023-05-10T04:40:10.325Z,409.58
2023-05-10T04:45:03.913Z,409.85
2023-05-10T04:55:29.296Z,409.92
2023-05-10T05:00:33.772Z,409.70
2023-05-10T05:05:35.869Z,409.89
2023-05-10T05:05:45.816Z,409.56
2023-05-10T05:10:41.574Z,409.10
2023-05-10T05:11:15.013Z,409.52
2023-05-10T05:16:44.191Z,409.54
2023-05-10T05:22:11.165Z,409.24
2023-05-10T05:28:12.614Z,409.23
2023-05-10T05:32:38.158Z,408.04
2023-05-10T05:38:36.519Z,408.01
2023-05-10T05:43:55.180Z,406.85
2023-05-10T05:49:15.766Z,407.05
2023-05-10T05:54:34.365Z,405.68
2023-05-10T06:00:30.966Z,405.43
2023-05-10T06:05:09.885Z,405.46
2023-05-10T06:10:15.039Z,405.34
2023-05-10T06:16:16.323Z,404.49
2023-05-10T06:22:12.448Z,404.37
2023-05-10T06:27:56.279Z,403.69
2023-05-10T06:35:27.337Z,403.24
2023-05-10T06:39:51.271Z,402.71
2023-05-10T06:51:01.335Z,402.21
2023-05-10T06:56:48.477Z,401.38
2023-05-10T07:02:50.760Z,401.24
2023-05-10T07:08:36.177Z,401.18
2023-05-10T07:14:36.663Z,401.38
2023-05-10T07:20:36.187Z,401.03
2023-05-10T07:26:26.264Z,400.37
2023-05-10T07:31:31.753Z,400.48
2023-05-10T07:37:08.612Z,399.50
2023-05-10T07:42:11.209Z,398.73
2023-05-10T07:47:58.477Z,398.35
2023-05-10T07:53:42.475Z,398.73
2023-05-10T07:59:35.058Z,398.39
2023-05-10T08:05:24.279Z,398.40
2023-05-10T08:09:56.565Z,397.99
2023-05-10T08:15:44.492Z,397.81
2023-05-10T08:26:54.780Z,397.14
2023-05-10T08:32:23.382Z,396.71
2023-05-10T08:37:46.047Z,396.86
2023-05-10T08:44:01.208Z,396.65
2023-05-10T08:48:43.518Z,396.23
2023-05-10T08:54:03.939Z,395.71
2023-05-10T09:00:28.927Z,395.54
2023-05-10T09:05:39.271Z,395.55
2023-05-10T09:10:56.915Z,395.77
2023-05-10T09:16:07.090Z,396.24
2023-05-10T09:21:31.128Z,395.02
2023-05-10T09:27:14.478Z,395.22
2023-05-10T09:33:02.473Z,395.85
2023-05-10T09:38:48.378Z,395.52
2023-05-10T09:44:30.836Z,395.69
2023-05-10T09:49:50.719Z,395.35
2023-05-10T09:55:38.115Z,395.90
2023-05-10T10:01:30.136Z,395.27
2023-05-10T10:07:20.853Z,395.06
2023-05-10T10:13:25.160Z,394.31
2023-05-10T10:19:08.817Z,393.44
2023-05-10T10:25:06.842Z,392.31
2023-05-10T10:30:32.215Z,392.45
2023-05-10T10:35:50.234Z,393.41
2023-05-10T10:41:32.445Z,393.74
2023-05-10T10:47:28.608Z,393.76
2023-05-10T10:52:54.716Z,393.28
2023-05-10T10:57:36.686Z,394.00
2023-05-10T11:03:30.947Z,393.68
2023-05-10T11:08:39.455Z,393.44
2023-05-10T11:14:37.021Z,393.64
2023-05-10T11:20:24.301Z,393.94
2023-05-10T11:26:06.823Z,393.59
2023-05-10T11:31:34.557Z,393.20
2023-05-10T11:38:08.013Z,393.23
2023-05-10T11:43:24.266Z,393.16
2023-05-10T11:48:39.540Z,393.49
2023-05-10T11:54:30.237Z,393.06
2023-05-10T12:00:30.119Z,393.09
2023-05-10T12:06:15.899Z,393.45
2023-05-10T12:11:32.002Z,393.36
2023-05-10T12:16:44.460Z,393.10
2023-05-10T12:21:59.903Z,393.38
2023-05-10T12:28:21.171Z,393.23
2023-05-10T12:33:05.986Z,392.17
2023-05-10T12:43:55.274Z,392.45
2023-05-10T12:46:05.045Z,391.82
2023-05-10T12:49:19.938Z,391.55
2023-05-10T12:54:46.210Z,391.17
2023-05-10T12:59:51.117Z,391.44
2023-05-10T13:05:53.276Z,390.70
2023-05-10T13:11:19.516Z,391.28
2023-05-10T13:22:36.327Z,391.18
2023-05-10T13:28:15.974Z,391.48
2023-05-10T13:34:01.431Z,391.19
2023-05-10T13:44:41.381Z,391.10
2023-05-10T13:50:33.997Z,391.37
2023-05-10T13:56:20.932Z,391.47
2023-05-10T14:01:44.906Z,392.15
2023-05-10T14:07:34.502Z,392.93
2023-05-10T14:13:21.669Z,393.48
2023-05-10T14:19:11.948Z,393.47
2023-05-10T14:25:12.231Z,393.13
2023-05-10T14:31:01.883Z,393.91
2023-05-10T14:42:28.430Z,394.35
2023-05-10T14:48:38.366Z,394.60
2023-05-10T14:59:50.636Z,395.17
2023-05-10T15:06:16.441Z,395.15
2023-05-10T15:12:23.346Z,395.55
2023-05-10T15:18:45.850Z,395.12
2023-05-10T15:23:35.144Z,394.56
2023-05-10T15:41:13.015Z,394.49
2023-05-10T15:46:28.448Z,394.27
2023-05-10T15:52:23.197Z,394.21
2023-05-10T15:57:42.175Z,394.52
2023-05-10T16:02:49.644Z,394.28
2023-05-10T16:07:56.564Z,394.48
2023-05-10T16:13:03.992Z,394.73
2023-05-10T16:18:11.567Z,394.47
2023-05-10T16:23:19.242Z,393.84
2023-05-10T16:28:27.092Z,393.74
2023-05-10T16:33:34.681Z,393.85
2023-05-10T16:38:42.331Z,393.32
2023-05-10T16:43:49.853Z,393.10
2023-05-10T16:48:57.621Z,392.92
2023-05-10T16:54:05.436Z,392.97
2023-05-10T16:59:13.283Z,392.41
2023-05-10T17:04:20.872Z,391.73
2023-05-10T17:09:28.650Z,391.00
2023-05-10T17:14:36.246Z,390.78
2023-05-10T17:19:43.992Z,390.60
2023-05-10T17:24:51.486Z,390.52
2023-05-10T17:29:59.435Z,389.97
2023-05-10T17:35:06.972Z,389.92
2023-05-10T17:40:15.009Z,390.05
2023-05-10T17:45:22.857Z,390.36
2023-05-10T17:50:30.637Z,389.82
2023-05-10T17:55:38.351Z,389.98
2023-05-10T18:00:46.056Z,390.26
2023-05-10T18:05:54.009Z,390.38
2023-05-10T18:11:01.807Z,389.98
2023-05-10T18:16:09.542Z,389.46
2023-05-10T18:21:17.685Z,389.20
2023-05-10T18:26:25.364Z,387.88
2023-05-10T18:31:33.208Z,384.62
2023-05-10T18:36:41.016Z,384.28
2023-05-10T18:41:48.826Z,385.72
2023-05-10T18:46:56.574Z,387.34
2023-05-10T18:52:04.271Z,386.48
2023-05-10T18:57:12.082Z,386.87
2023-05-10T19:02:20.066Z,387.32
2023-05-10T19:07:27.908Z,387.54
2023-05-10T19:12:35.748Z,387.04
2023-05-10T19:17:45.208Z,387.32
2023-05-10T19:27:59.762Z,387.65
2023-05-10T19:33:07.712Z,388.03
2023-05-10T19:38:15.374Z,387.76
2023-05-10T19:43:23.375Z,387.37
2023-05-10T19:48:31.422Z,387.08
2023-05-10T19:53:39.518Z,386.41
2023-05-10T19:58:48.493Z,387.64
2023-05-10T20:03:56.594Z,387.52
2023-05-10T20:09:04.441Z,386.46
2023-05-10T20:14:12.340Z,386.74
2023-05-10T20:19:23.455Z,386.46
2023-05-10T20:24:31.284Z,386.01
2023-05-10T20:29:43.161Z,385.94
2023-05-10T20:34:51.202Z,386.33
2023-05-10T20:39:59.110Z,386.00
2023-05-10T20:45:07.557Z,385.53
2023-05-10T20:50:15.810Z,385.39
2023-05-10T20:55:23.284Z,385.16
2023-05-10T21:00:30.867Z,384.51
2023-05-10T21:05:38.173Z,383.89
2023-05-10T21:10:45.425Z,384.29
2023-05-10T21:15:52.789Z,384.59
2023-05-10T21:21:00.089Z,385.35
2023-05-10T21:26:07.309Z,385.58
2023-05-10T21:31:14.615Z,386.12
2023-05-10T21:36:21.980Z,385.99
2023-05-10T21:41:29.165Z,386.20
2023-05-10T21:46:36.759Z,386.25
2023-05-10T21:51:44.171Z,386.62
2023-05-10T21:56:51.414Z,386.85
2023-05-10T22:01:58.624Z,387.02
2023-05-10T22:07:05.927Z,387.19
2023-05-10T22:12:13.284Z,387.23
2023-05-10T22:17:20.929Z,388.23
2023-05-10T22:22:28.361Z,388.38
2023-05-10T22:27:35.644Z,388.42
2023-05-10T22:35:00.831Z,388.22
2023-05-10T22:44:59.008Z,387.81
2023-05-10T23:28:15.251Z,386.59
2023-05-10T23:45:23.304Z,387.66
2023-05-10T23:51:05.758Z,388.42
2023-05-10T23:56:50.706Z,388.82
